»·PEaware :: N335AK KBUR-KSAC

N335AK :: KBUR-KSAC

FLIGHT INFORMATION

Flight Status: Arrived
Operator: Privately registered:
United States
More flights under this callsign
Pilot: Gabor H. (24209)
Aircraft: Unknown
(EPIC)
More flights by this aircraft type
Origin: KBUR Bob Hope-Burbank
United States
Destination: KSAC Sacramento Executive
United States
More flights between these airports :: More routes between these airports
Route: VNY3 GMN CZQ LIN
File this flight plan on PilotEdge
Remarks:
Altitude:
(Current/Filed)
24,000ft
Speed:
(Current/Filed)
325kts
Departed: 28-Aug-20 07:23 PM
Arrived: 28-Aug-20 08:26 PM
Distance/Time
Traveled:
300nm/1:02
Distance/Time
To Go:
Arrived

Flight Plot

Page will automatically refresh every two minutes.

Flight plan parsing failed; only flown route is shown


Map Options




Map Legend


Flown Route
Filed Route
Departure Airport
Arrival Airport
Navaid (VOR, NDB)
Fix

Horizontal Profiles

Position Reports

Time Latitude Longitude Heading Altitude Ground
Speed
28-Aug-20 19:06 34.200191 -118.364770 267 779ft 0kts
28-Aug-20 19:07 34.200191 -118.364769 267 779ft 0kts
28-Aug-20 19:08 34.200191 -118.364770 267 779ft 0kts
28-Aug-20 19:09 34.200191 -118.364770 267 779ft 0kts
28-Aug-20 19:10 34.200191 -118.364770 267 779ft 0kts
28-Aug-20 19:11 34.200191 -118.364770 267 779ft 0kts
28-Aug-20 19:12 34.200191 -118.364770 267 779ft 0kts
28-Aug-20 19:13 34.200191 -118.364770 267 779ft 0kts
28-Aug-20 19:14 34.200191 -118.364770 267 779ft 0kts
28-Aug-20 19:15 34.200191 -118.364770 267 779ft 0kts
28-Aug-20 19:16 34.200191 -118.364770 267 779ft 0kts
28-Aug-20 19:17 34.200191 -118.364770 267 779ft 0kts
28-Aug-20 19:18 34.199720 -118.364555 168 779ft 4kts
28-Aug-20 19:19 34.199119 -118.367343 274 779ft 23kts
28-Aug-20 19:20 34.198793 -118.368946 197 779ft 0kts
28-Aug-20 19:21 34.198050 -118.368620 126 779ft 9kts
28-Aug-20 19:22 34.197518 -118.344206 93 1220ft 172kts
28-Aug-20 19:23 34.164855 -118.341200 220 3975ft 204kts
28-Aug-20 19:24 34.143556 -118.401628 309 4972ft 231kts
28-Aug-20 19:25 34.207170 -118.420396 352 7410ft 247kts
28-Aug-20 19:26 34.277899 -118.432973 351 9882ft 264kts
28-Aug-20 19:27 34.351736 -118.444271 352 12366ft 274kts
28-Aug-20 19:28 34.421056 -118.472988 310 14645ft 271kts
28-Aug-20 19:29 34.479068 -118.533199 313 16600ft 279kts
28-Aug-20 19:30 34.539260 -118.593753 312 18232ft 283kts
28-Aug-20 19:31 34.598692 -118.653625 311 19678ft 284kts
28-Aug-20 19:32 34.659113 -118.714611 310 21194ft 279kts
28-Aug-20 19:33 34.718009 -118.774179 310 22705ft 272kts
28-Aug-20 19:34 34.775249 -118.832228 309 24021ft 271kts
28-Aug-20 19:35 34.847014 -118.880511 331 23991ft 321kts
28-Aug-20 19:36 34.933422 -118.919228 334 23939ft 337kts
28-Aug-20 19:37 35.022233 -118.959004 336 23895ft 341kts
28-Aug-20 19:38 35.110553 -118.998623 337 23830ft 340kts
28-Aug-20 19:39 35.199195 -119.038510 337 23798ft 338kts
28-Aug-20 19:40 35.287338 -119.078261 338 23797ft 337kts
28-Aug-20 19:41 35.375045 -119.117915 337 23798ft 336kts
28-Aug-20 19:42 35.462469 -119.157532 338 23798ft 336kts
28-Aug-20 19:43 35.550200 -119.197382 338 23798ft 336kts
28-Aug-20 19:44 35.637688 -119.237212 337 23798ft 336kts
28-Aug-20 19:45 35.725437 -119.277254 337 23799ft 336kts
28-Aug-20 19:46 35.812920 -119.317271 338 23799ft 336kts
28-Aug-20 19:47 35.900531 -119.357441 337 23803ft 336kts
28-Aug-20 19:48 35.987980 -119.397630 337 23808ft 336kts
28-Aug-20 19:49 36.075404 -119.437905 337 23805ft 336kts
28-Aug-20 19:50 36.161873 -119.477829 337 23798ft 336kts
28-Aug-20 19:51 36.249416 -119.518349 337 23797ft 336kts
28-Aug-20 19:52 36.336692 -119.558842 337 23797ft 336kts
28-Aug-20 19:54 36.424257 -119.599569 338 23797ft 335kts
28-Aug-20 19:55 36.511389 -119.640192 337 23797ft 335kts
28-Aug-20 19:56 36.598165 -119.680744 337 23799ft 335kts
28-Aug-20 19:57 36.685626 -119.721716 337 23799ft 336kts
28-Aug-20 19:58 36.773012 -119.762752 337 23799ft 336kts
28-Aug-20 19:59 36.860314 -119.803847 337 23802ft 336kts
28-Aug-20 20:00 36.937215 -119.866999 319 23807ft 332kts
28-Aug-20 20:01 37.009698 -119.938083 319 23813ft 333kts
28-Aug-20 20:02 37.082832 -120.010020 320 23818ft 334kts
28-Aug-20 20:03 37.155358 -120.081521 321 23815ft 334kts
28-Aug-20 20:04 37.228165 -120.153494 321 23809ft 334kts
28-Aug-20 20:05 37.301294 -120.225970 321 23739ft 336kts
28-Aug-20 20:06 37.378324 -120.302511 321 22194ft 367kts
28-Aug-20 20:07 37.459507 -120.383398 321 20548ft 377kts
28-Aug-20 20:08 37.540407 -120.464237 321 19796ft 359kts
28-Aug-20 20:09 37.619132 -120.543123 322 18262ft 367kts
28-Aug-20 20:09 37.685155 -120.609451 322 16765ft 360kts
28-Aug-20 20:11 37.774349 -120.699305 322 14684ft 352kts
28-Aug-20 20:12 37.846171 -120.771888 322 14001ft 307kts
28-Aug-20 20:12 37.903203 -120.829623 322 14020ft 322kts
28-Aug-20 20:14 37.985572 -120.913242 322 14023ft 328kts
28-Aug-20 20:14 38.045227 -120.973954 322 13839ft 335kts
28-Aug-20 20:15 38.117835 -121.051882 320 12847ft 340kts
28-Aug-20 20:17 38.197802 -121.140800 320 11666ft 314kts
28-Aug-20 20:17 38.252441 -121.201724 320 10837ft 314kts
28-Aug-20 20:18 38.312606 -121.268957 320 8911ft 262kts
28-Aug-20 20:19 38.364508 -121.327071 319 6886ft 238kts
28-Aug-20 20:20 38.412735 -121.381180 318 4883ft 227kts
28-Aug-20 20:21 38.459041 -121.433234 317 2958ft 216kts
28-Aug-20 20:22 38.507574 -121.458261 19 1625ft 186kts
28-Aug-20 20:23 38.539992 -121.457441 304 1281ft 115kts
28-Aug-20 20:24 38.527110 -121.482772 210 409ft 102kts
28-Aug-20 20:25 38.512154 -121.494924 214 23ft 11kts
28-Aug-20 20:26 38.511354 -121.496863 271 22ft 0kts
28-Aug-20 20:27 38.512015 -121.497480 37 22ft 13kts
28-Aug-20 20:28 38.514794 -121.497982 327 23ft 8kts
28-Aug-20 20:29 38.514875 -121.498452 224 23ft 0kts
28-Aug-20 20:30 38.514875 -121.498452 224 23ft 0kts

Navigation Log

Ident Type
Flight plan parsing failed, navigation log unavailable